Time;durP1;ratioP1;P1;durP2;ratioP2;P2;SDS_P1;SDS_P2;PMS_P1;PMS_P2;Temp;Humidity;BMP_temperature;BMP_pressure;BME280_temperature;BME280_humidity;BME280_pressure;Samples;Min_cycle;Max_cycle;Signal;HPM_P1;HPM_P2
2023/08/10 00:01:33;;;;;;;;;;;;;;;9.73;100.00;100025.63;5023649;28;19921;-86
2023/08/10 00:03:59;;;;;;;;;;;;;;;9.73;100.00;100025.63;5023937;28;19969;-88
2023/08/10 00:06:24;;;;;;;;;;;;;;;9.76;100.00;100028.16;5022638;28;20299;-87
2023/08/10 00:08:50;;;;;;;;;;;;;;;9.82;100.00;100023.50;5023356;28;19925;-87
2023/08/10 00:11:15;;;;;;;;;;;;;;;9.84;100.00;100020.81;5023243;28;20322;-88
2023/08/10 00:13:40;;;;;;;;;;;;;;;9.80;100.00;100025.34;5041898;28;20345;-86
2023/08/10 00:16:06;;;;;;;;;;;;;;;9.82;100.00;100022.66;5041327;28;20402;-86
2023/08/10 00:18:31;;;;;;;;;;;;;;;9.78;100.00;100023.66;5041279;28;19916;-85
2023/08/10 00:20:56;;;;;;;;;;;;;;;9.79;100.00;100028.91;5041520;28;19928;-85
2023/08/10 00:23:25;;;;;;;;;;;;;;;9.75;100.00;100022.03;5040045;28;19983;-88
2023/08/10 00:25:50;;;;;;;;;;;;;;;9.73;100.00;100026.50;5041912;28;20513;-86
2023/08/10 00:28:15;;;;;;;;;;;;;;;9.77;100.00;100025.47;5041328;28;20007;-85
2023/08/10 00:30:41;;;;;;;;;;;;;;;9.75;100.00;100026.47;5042117;28;19921;-85
2023/08/10 00:33:07;;;;;;;;;;;;;;;9.75;100.00;100018.53;5045574;28;19927;-85
2023/08/10 00:35:32;;;;;;;;;;;;;;;9.71;100.00;100020.38;5026912;28;19920;-85
2023/08/10 00:37:58;;;;;;;;;;;;;;;9.69;100.00;100016.09;5026295;28;19917;-85
2023/08/10 00:40:23;;;;;;;;;;;;;;;9.69;100.00;100022.22;5045397;28;20014;-86
2023/08/10 00:42:48;;;;;;;;;;;;;;;9.70;100.00;100023.09;5027049;28;19921;-85
2023/08/10 00:45:13;;;;;;;;;;;;;;;9.74;100.00;100016.78;5027310;28;19916;-86
2023/08/10 00:47:39;;;;;;;;;;;;;;;9.69;100.00;100026.66;5045664;28;19928;-85
2023/08/10 00:50:05;;;;;;;;;;;;;;;9.67;100.00;100023.19;5027096;28;20012;-85
2023/08/10 00:52:31;;;;;;;;;;;;;;;9.72;100.00;100024.78;5043530;28;19921;-85
2023/08/10 00:54:56;;;;;;;;;;;;;;;9.63;100.00;100020.66;5044978;28;19925;-86
2023/08/10 00:57:22;;;;;;;;;;;;;;;9.67;100.00;100018.78;5027411;28;19920;-85
2023/08/10 00:59:47;;;;;;;;;;;;;;;9.62;100.00;100021.59;5044884;28;19921;-85
2023/08/10 01:02:12;;;;;;;;;;;;;;;9.69;100.00;100024.03;5026895;28;19917;-87
2023/08/10 01:04:39;;;;;;;;;;;;;;;9.67;100.00;100028.50;5042905;28;20371;-86
2023/08/10 01:07:07;;;;;;;;;;;;;;;9.71;100.00;100030.97;5043527;28;19924;-87
2023/08/10 01:09:33;;;;;;;;;;;;;;;9.66;100.00;100029.44;5026919;28;20040;-85
2023/08/10 01:12:02;;;;;;;;;;;;;;;9.64;100.00;100027.69;5045008;28;20007;-86
2023/08/10 01:14:46;;;;;;;;;;;;;;;9.64;100.00;100032.97;5044639;28;19924;-85
2023/08/10 01:17:18;;;;;;;;;;;;;;;9.66;100.00;100021.50;5044982;28;19921;-84
2023/08/10 01:19:43;;;;;;;;;;;;;;;9.62;100.00;100032.19;5043865;28;19925;-85
2023/08/10 01:22:35;;;;;;;;;;;;;;;9.63;100.00;100025.94;5022266;28;20457;-85
2023/08/10 01:25:02;;;;;;;;;;;;;;;9.68;100.00;100030.22;5019253;28;19924;-87
2023/08/10 07:45:52;;;;;;;;;;;;;;;9.20;100.00;100122.59;5071609;28;20357;-84
2023/08/10 07:48:17;;;;;;;;;;;;;;;9.22;100.00;100125.19;5054160;28;19937;-85
2023/08/10 07:50:43;;;;;;;;;;;;;;;9.21;100.00;100111.13;5071866;28;19920;-86
2023/08/10 07:53:08;;;;;;;;;;;;;;;9.24;100.00;100111.03;5054129;28;19916;-86
2023/08/10 07:55:33;;;;;;;;;;;;;;;9.18;100.00;100111.22;5071714;28;19956;-86
2023/08/10 07:57:59;;;;;;;;;;;;;;;9.26;100.00;100109.19;5070634;28;20363;-87
2023/08/10 08:00:24;;;;;;;;;;;;;;;9.32;100.00;100107.25;5062321;28;20003;-86
2023/08/10 08:02:49;;;;;;;;;;;;;;;9.30;100.00;100099.38;5072081;28;19940;-87
2023/08/10 08:05:16;;;;;;;;;;;;;;;9.33;100.00;100106.34;5072080;28;19921;-85
2023/08/10 08:07:41;;;;;;;;;;;;;;;9.35;100.00;100107.16;5052096;28;19916;-86
2023/08/10 08:10:06;;;;;;;;;;;;;;;9.33;100.00;100104.56;5053775;28;19917;-86
2023/08/10 08:12:32;;;;;;;;;;;;;;;9.34;100.00;100101.00;5070679;28;20013;-86
2023/08/10 08:14:57;;;;;;;;;;;;;;;9.32;100.00;100101.97;5071439;28;19916;-86
2023/08/10 08:17:22;;;;;;;;;;;;;;;9.39;100.00;100096.44;5071654;28;20003;-86
2023/08/10 08:19:48;;;;;;;;;;;;;;;9.31;100.00;100101.09;5071821;28;19920;-86
2023/08/10 08:22:14;;;;;;;;;;;;;;;9.37;100.00;100097.41;5071748;28;19920;-86
2023/08/10 08:24:40;;;;;;;;;;;;;;;9.33;100.00;100098.41;5061444;28;19999;-87
2023/08/10 08:27:05;;;;;;;;;;;;;;;9.35;100.00;100097.47;5070388;28;19920;-86
2023/08/10 08:29:30;;;;;;;;;;;;;;;9.43;100.00;100099.84;5053592;28;19923;-87
2023/08/10 08:31:56;;;;;;;;;;;;;;;9.36;100.00;100091.25;5053584;28;19916;-86
2023/08/10 08:34:21;;;;;;;;;;;;;;;9.37;100.00;100098.28;5071563;28;19916;-84
2023/08/10 08:36:47;;;;;;;;;;;;;;;9.37;100.00;100090.34;5071495;28;20070;-85
2023/08/10 08:39:12;;;;;;;;;;;;;;;9.40;100.00;100082.31;5069718;28;19924;-91
2023/08/10 08:41:38;;;;;;;;;;;;;;;9.39;100.00;100087.63;5071341;28;19961;-85
2023/08/10 08:44:07;;;;;;;;;;;;;;;9.45;100.00;100092.72;5070184;28;19974;-87
2023/08/10 08:46:35;;;;;;;;;;;;;;;9.47;100.00;100084.75;5069603;28;19925;-85
2023/08/10 08:49:24;;;;;;;;;;;;;;;9.44;100.00;100086.59;5071439;28;19916;-86
2023/08/10 08:51:49;;;;;;;;;;;;;;;9.40;100.00;100077.00;5052942;28;19916;-83
2023/08/10 08:54:25;;;;;;;;;;;;;;;9.45;100.00;100079.50;5075166;28;20466;-84
2023/08/10 08:56:51;;;;;;;;;;;;;;;9.49;100.00;100078.47;5074806;28;19916;-89
2023/08/10 08:59:16;;;;;;;;;;;;;;;9.47;100.00;100075.03;5073676;28;19927;-86
2023/08/10 09:01:42;;;;;;;;;;;;;;;9.45;100.00;100064.50;5074867;28;19923;-86
2023/08/10 09:04:07;;;;;;;;;;;;;;;9.49;100.00;100062.59;5074899;28;20074;-88
2023/08/10 09:06:32;;;;;;;;;;;;;;;9.48;100.00;100060.88;5074682;28;19966;-86
2023/08/10 09:08:57;;;;;;;;;;;;;;;9.45;100.00;100056.56;5074816;28;19993;-85
2023/08/10 09:11:23;;;;;;;;;;;;;;;9.41;100.00;100049.66;5074752;28;19917;-86
2023/08/10 09:14:08;;;;;;;;;;;;;;;9.51;100.00;100055.50;5073508;28;20338;-87
2023/08/10 09:16:34;;;;;;;;;;;;;;;9.46;100.00;100052.13;5074237;28;20394;-86
2023/08/10 09:19:00;;;;;;;;;;;;;;;9.50;100.00;100053.75;5074779;28;19916;-86
2023/08/10 09:21:30;;;;;;;;;;;;;;;9.51;100.00;100050.19;5055112;28;20310;-86
2023/08/10 09:23:55;;;;;;;;;;;;;;;9.51;100.00;100054.59;5074627;28;20317;-86
2023/08/10 09:26:21;;;;;;;;;;;;;;;9.50;100.00;100051.13;5074598;28;19924;-87
2023/08/10 09:28:50;;;;;;;;;;;;;;;9.47;100.00;100051.22;5062000;28;19941;-86
2023/08/10 09:31:22;;;;;;;;;;;;;;;9.48;100.00;100045.03;5056376;28;20280;-86
2023/08/10 09:33:52;;;;;;;;;;;;;;;9.55;100.00;100049.16;5072778;28;19916;-86
2023/08/10 09:36:21;;;;;;;;;;;;;;;9.51;100.00;100049.31;5073029;28;20255;-86
2023/08/10 09:38:50;;;;;;;;;;;;;;;9.53;100.00;100052.81;5074257;28;20416;-86
2023/08/10 09:41:15;;;;;;;;;;;;;;;9.54;100.00;100051.88;5074317;28;19924;-86
2023/08/10 09:43:42;;;;;;;;;;;;;;;9.49;100.00;100046.72;5072728;28;19934;-86
2023/08/10 09:46:09;;;;;;;;;;;;;;;9.42;100.00;100040.78;5056213;28;19916;-86
2023/08/10 09:48:42;;;;;;;;;;;;;;;9.45;100.00;100042.47;5073974;28;19916;-86
2023/08/10 09:51:08;;;;;;;;;;;;;;;9.44;100.00;100043.38;5056246;28;19917;-86
2023/08/10 09:53:33;;;;;;;;;;;;;;;9.53;100.00;100036.94;5056022;28;19924;-86
2023/08/10 09:55:59;;;;;;;;;;;;;;;9.52;100.00;100033.41;5056019;28;20318;-86
2023/08/10 09:58:25;;;;;;;;;;;;;;;9.53;100.00;100027.19;5072384;28;19977;-86
2023/08/10 10:00:50;;;;;;;;;;;;;;;9.51;100.00;100029.03;5055854;28;20482;-90
2023/08/10 10:03:16;;;;;;;;;;;;;;;9.47;100.00;100026.56;5073359;28;19961;-86
2023/08/10 10:06:00;;;;;;;;;;;;;;;9.48;100.00;100034.44;5073771;28;19974;-86
2023/08/10 10:08:26;;;;;;;;;;;;;;;9.38;100.00;100033.00;5073592;28;19916;-85
2023/08/10 10:10:54;;;;;;;;;;;;;;;9.40;100.00;100020.63;5055811;28;20294;-86
2023/08/10 10:13:20;;;;;;;;;;;;;;;9.48;100.00;100023.84;5072325;28;19954;-86
2023/08/10 10:15:46;;;;;;;;;;;;;;;9.52;100.00;100025.47;5073615;28;19921;-81
2023/08/10 10:18:12;;;;;;;;;;;;;;;9.47;100.00;100022.13;5073675;28;20272;-87
2023/08/10 10:20:39;;;;;;;;;;;;;;;9.46;100.00;100017.72;5072932;28;19928;-88
2023/08/10 10:23:04;;;;;;;;;;;;;;;9.54;100.00;100012.19;5073620;28;19999;-87
2023/08/10 10:25:30;;;;;;;;;;;;;;;9.44;100.00;100007.25;5071549;28;20019;-84
2023/08/10 10:27:56;;;;;;;;;;;;;;;9.46;100.00;99999.22;5071836;28;20363;-87
2023/08/10 10:30:24;;;;;;;;;;;;;;;9.47;100.00;100000.97;5073242;28;19938;-87
2023/08/10 10:32:52;;;;;;;;;;;;;;;9.50;100.00;100000.84;5055147;28;20367;-87
2023/08/10 10:35:23;;;;;;;;;;;;;;;9.52;100.00;100004.28;5054971;28;19919;-85
2023/08/10 10:37:55;;;;;;;;;;;;;;;9.48;100.00;100007.97;5054817;28;20310;-85
2023/08/10 10:40:23;;;;;;;;;;;;;;;9.49;100.00;99998.25;5071272;28;20349;-86
2023/08/10 10:43:08;;;;;;;;;;;;;;;9.48;100.00;99997.41;5071450;28;19923;-87
2023/08/10 10:45:37;;;;;;;;;;;;;;;9.45;100.00;99995.72;5049919;28;19924;-89
2023/08/10 10:48:06;;;;;;;;;;;;;;;9.45;100.00;99989.56;5071193;28;20271;-87
2023/08/10 10:50:32;;;;;;;;;;;;;;;9.41;100.00;99985.28;5073078;28;19916;-88
2023/08/10 10:53:01;;;;;;;;;;;;;;;9.40;100.00;99991.53;5072545;28;19927;-89
2023/08/10 10:55:28;;;;;;;;;;;;;;;9.41;100.00;99985.28;5072794;28;19916;-87
2023/08/10 10:57:53;;;;;;;;;;;;;;;9.42;100.00;99982.59;5069695;28;20023;-85
2023/08/10 11:00:19;;;;;;;;;;;;;;;9.38;100.00;99986.28;5072617;28;20007;-86
2023/08/10 11:03:06;;;;;;;;;;;;;;;9.44;100.00;99991.38;5072579;28;19923;-88
2023/08/10 11:05:32;;;;;;;;;;;;;;;9.51;100.00;99993.78;5072284;28;19917;-82
2023/08/10 11:08:03;;;;;;;;;;;;;;;9.44;100.00;99993.13;5072471;28;19966;-90
2023/08/10 11:10:29;;;;;;;;;;;;;;;9.38;100.00;99995.97;5072082;28;19925;-85
2023/08/10 11:12:54;;;;;;;;;;;;;;;9.41;100.00;99985.28;5053225;28;20003;-86
2023/08/10 11:15:20;;;;;;;;;;;;;;;9.45;100.00;99982.50;5071909;28;20470;-85
2023/08/10 11:17:49;;;;;;;;;;;;;;;9.49;100.00;99985.88;5072273;28;19921;-86
2023/08/10 11:20:15;;;;;;;;;;;;;;;9.42;100.00;99992.31;5070872;28;20287;-86
2023/08/10 11:26:14;;;;;;;;;;;;;;;9.47;100.00;100003.59;4979782;28;20202;-86
2023/08/10 11:28:40;;;;;;;;;;;;;;;9.52;100.00;99993.72;4979317;28;19917;-86
2023/08/10 11:31:06;;;;;;;;;;;;;;;9.51;100.00;99994.66;5022354;28;19917;-84
2023/08/10 11:33:31;;;;;;;;;;;;;;;9.47;100.00;99995.66;5054222;28;19920;-85
2023/08/10 11:35:58;;;;;;;;;;;;;;;9.50;100.00;100006.16;5072172;28;20507;-85
2023/08/10 11:38:24;;;;;;;;;;;;;;;9.53;100.00;100003.41;5071696;28;19916;-87
2023/08/10 11:40:50;;;;;;;;;;;;;;;9.58;100.00;100005.88;5071947;28;20299;-86
2023/08/10 11:43:22;;;;;;;;;;;;;;;9.63;100.00;100014.50;5070671;28;20343;-85
2023/08/10 11:45:48;;;;;;;;;;;;;;;9.59;100.00;100013.75;5070642;28;19924;-87
2023/08/10 11:48:15;;;;;;;;;;;;;;;9.48;100.00;100015.91;5071883;28;19920;-87
2023/08/10 11:50:41;;;;;;;;;;;;;;;9.56;100.00;100008.56;5072020;28;19916;-85
2023/08/10 11:53:10;;;;;;;;;;;;;;;9.53;100.00;100011.31;5071807;28;19923;-85
2023/08/10 11:55:40;;;;;;;;;;;;;;;9.61;100.00;100009.28;5071720;28;19916;-84
2023/08/10 11:58:06;;;;;;;;;;;;;;;9.58;100.00;100008.53;5070509;28;19967;-85
2023/08/10 12:00:33;;;;;;;;;;;;;;;9.58;100.00;100014.66;5071941;28;19954;-85
2023/08/10 12:02:59;;;;;;;;;;;;;;;9.52;100.00;100014.03;5070445;28;20429;-84
2023/08/10 12:05:38;;;;;;;;;;;;;;;9.64;100.00;100025.03;5053547;28;19920;-84
2023/08/10 12:08:05;;;;;;;;;;;;;;;9.53;100.00;100021.06;5061247;28;19917;-86
2023/08/10 12:10:35;;;;;;;;;;;;;;;9.53;100.00;100021.91;5071930;28;20011;-86
2023/08/10 12:13:03;;;;;;;;;;;;;;;9.56;100.00;100027.09;5070403;28;19974;-84
2023/08/10 12:15:29;;;;;;;;;;;;;;;9.52;100.00;100014.03;5071771;28;19958;-83
2023/08/10 12:17:55;;;;;;;;;;;;;;;9.51;100.00;100013.16;5071230;28;19917;-86
2023/08/10 12:20:20;;;;;;;;;;;;;;;9.51;100.00;99999.94;5071763;28;19920;-85
2023/08/10 12:22:45;;;;;;;;;;;;;;;9.51;100.00;99992.00;5071589;28;20007;-85
2023/08/10 12:25:10;;;;;;;;;;;;;;;9.59;100.00;99989.09;5071671;28;19971;-84
2023/08/10 12:27:36;;;;;;;;;;;;;;;9.59;100.00;99991.75;5072769;28;19917;-85
2023/08/10 12:30:01;;;;;;;;;;;;;;;9.55;100.00;99993.63;5075586;28;20286;-85
2023/08/10 12:32:28;;;;;;;;;;;;;;;9.51;100.00;99986.72;5075616;28;19986;-85
2023/08/10 12:34:54;;;;;;;;;;;;;;;9.52;100.00;99988.44;5075362;28;19952;-84
2023/08/10 12:37:19;;;;;;;;;;;;;;;9.55;100.00;99982.19;5065000;28;19955;-84
2023/08/10 12:39:44;;;;;;;;;;;;;;;9.57;100.00;99975.94;5057502;28;19920;-84
2023/08/10 12:42:09;;;;;;;;;;;;;;;9.62;100.00;99968.69;5075103;28;19962;-84
2023/08/10 12:44:35;;;;;;;;;;;;;;;9.58;100.00;99967.06;5074387;28;20355;-84
2023/08/10 12:47:01;;;;;;;;;;;;;;;9.60;100.00;99978.44;5073372;28;19970;-86
2023/08/10 12:49:26;;;;;;;;;;;;;;;9.62;100.00;99976.63;5057240;28;19917;-85
2023/08/10 12:51:52;;;;;;;;;;;;;;;9.60;100.00;99975.78;5075130;28;19989;-85
2023/08/10 12:54:17;;;;;;;;;;;;;;;9.68;100.00;99977.31;5075000;28;19920;-85
2023/08/10 12:56:42;;;;;;;;;;;;;;;9.64;100.00;99965.97;5075163;28;19925;-86
2023/08/10 12:59:07;;;;;;;;;;;;;;;9.61;100.00;99968.72;5055670;28;19916;-86
2023/08/10 13:01:33;;;;;;;;;;;;;;;9.61;100.00;99966.94;5065430;28;20326;-84
2023/08/10 13:03:58;;;;;;;;;;;;;;;9.60;100.00;99957.28;5074549;28;20291;-85
2023/08/10 13:06:24;;;;;;;;;;;;;;;9.60;100.00;99959.91;5065323;28;19974;-84
2023/08/10 13:08:50;;;;;;;;;;;;;;;9.60;100.00;99954.63;5074763;28;20291;-84
2023/08/10 13:11:16;;;;;;;;;;;;;;;9.57;100.00;99960.06;5074822;28;20015;-89
2023/08/10 13:13:41;;;;;;;;;;;;;;;9.61;100.00;99955.50;5073465;28;20031;-84
2023/08/10 13:16:06;;;;;;;;;;;;;;;9.75;100.00;99947.06;5074698;28;19920;-84
2023/08/10 13:18:31;;;;;;;;;;;;;;;9.63;100.00;99946.56;5074574;28;20003;-84
2023/08/10 13:20:57;;;;;;;;;;;;;;;9.64;100.00;99950.97;5074579;28;19920;-84
2023/08/10 13:23:22;;;;;;;;;;;;;;;9.75;100.00;99950.56;5074670;28;19912;-84
2023/08/10 13:25:47;;;;;;;;;;;;;;;9.73;100.00;99948.88;5074465;28;19920;-80
2023/08/10 13:28:12;;;;;;;;;;;;;;;9.71;100.00;99940.16;5073260;28;19917;-85
2023/08/10 13:30:38;;;;;;;;;;;;;;;9.69;100.00;99942.84;5074493;28;19989;-86
2023/08/10 13:33:03;;;;;;;;;;;;;;;9.67;100.00;99951.75;5074375;28;19948;-84
2023/08/10 13:35:32;;;;;;;;;;;;;;;9.70;100.00;99954.28;5039830;28;19927;-84
2023/08/10 13:37:59;;;;;;;;;;;;;;;9.62;100.00;99952.81;5062891;28;19920;-85
2023/08/10 13:40:26;;;;;;;;;;;;;;;9.69;100.00;99949.94;5071887;28;19923;-85
2023/08/10 13:42:51;;;;;;;;;;;;;;;9.67;100.00;99949.13;5072089;28;19912;-85
2023/08/10 13:45:16;;;;;;;;;;;;;;;9.66;100.00;99952.69;5073857;28;20145;-85
2023/08/10 13:47:42;;;;;;;;;;;;;;;9.67;100.00;99951.75;5073136;28;19917;-84
2023/08/10 13:50:08;;;;;;;;;;;;;;;9.70;100.00;99949.88;5073571;28;19920;-85
2023/08/10 13:52:33;;;;;;;;;;;;;;;9.68;100.00;99950.84;5073489;28;20323;-85
2023/08/10 13:54:58;;;;;;;;;;;;;;;9.76;100.00;99956.72;5073902;28;19916;-86
2023/08/10 13:57:24;;;;;;;;;;;;;;;9.69;100.00;99952.59;5072644;28;20068;-85
2023/08/10 13:59:51;;;;;;;;;;;;;;;9.63;100.00;99954.50;5073858;28;19916;-90
2023/08/10 14:02:18;;;;;;;;;;;;;;;9.66;100.00;99952.69;5072410;28;20256;-86
2023/08/10 14:04:43;;;;;;;;;;;;;;;9.72;100.00;99953.34;5073478;28;19925;-83
2023/08/10 14:07:08;;;;;;;;;;;;;;;9.75;100.00;99941.78;5073628;28;20039;-85
2023/08/10 14:09:33;;;;;;;;;;;;;;;9.70;100.00;99938.41;5073665;28;19939;-86
2023/08/10 14:11:59;;;;;;;;;;;;;;;9.78;100.00;99941.63;5073778;28;19989;-84
2023/08/10 14:14:26;;;;;;;;;;;;;;;9.73;100.00;99940.94;5072288;28;19916;-84
2023/08/10 14:16:51;;;;;;;;;;;;;;;9.76;100.00;99939.06;5064074;28;19917;-84
2023/08/10 14:19:16;;;;;;;;;;;;;;;9.75;100.00;99936.50;5055462;28;20011;-84
2023/08/10 14:21:42;;;;;;;;;;;;;;;9.72;100.00;99940.09;5073396;28;20160;-84
2023/08/10 14:24:07;;;;;;;;;;;;;;;9.68;100.00;99925.25;5073479;28;19969;-86
2023/08/10 14:26:33;;;;;;;;;;;;;;;9.72;100.00;99937.44;5055363;28;20410;-84
2023/08/10 14:28:58;;;;;;;;;;;;;;;9.67;100.00;99930.59;5072145;28;19939;-84
2023/08/10 14:31:24;;;;;;;;;;;;;;;9.70;100.00;99931.38;5063602;28;19973;-84
2023/08/10 14:33:49;;;;;;;;;;;;;;;9.70;100.00;99922.53;5073310;28;19916;-84
2023/08/10 14:36:14;;;;;;;;;;;;;;;9.74;100.00;99929.47;5072973;28;19917;-84
2023/08/10 14:38:40;;;;;;;;;;;;;;;9.70;100.00;99928.72;5073130;28;19920;-82
2023/08/10 14:41:05;;;;;;;;;;;;;;;9.71;100.00;99927.78;5072689;28;19916;-85
2023/08/10 14:43:30;;;;;;;;;;;;;;;9.72;100.00;99926.88;5062229;28;19916;-83
2023/08/10 14:45:56;;;;;;;;;;;;;;;9.68;100.00;99927.03;5072985;28;20314;-85
2023/08/10 14:48:21;;;;;;;;;;;;;;;9.72;100.00;99926.03;5072889;28;20406;-85
2023/08/10 14:50:46;;;;;;;;;;;;;;;9.72;100.00;99926.88;5072624;28;19916;-85
2023/08/10 14:53:12;;;;;;;;;;;;;;;9.66;100.00;99923.59;5072749;28;19920;-84
2023/08/10 14:55:37;;;;;;;;;;;;;;;9.74;100.00;99925.03;5072768;28;20011;-85
2023/08/10 14:58:02;;;;;;;;;;;;;;;9.68;100.00;99919.09;5071454;28;20397;-86
2023/08/10 15:00:31;;;;;;;;;;;;;;;9.72;100.00;99932.16;5054159;28;19924;-85
2023/08/10 15:02:56;;;;;;;;;;;;;;;9.72;100.00;99929.50;5054676;28;20321;-85
2023/08/10 15:05:22;;;;;;;;;;;;;;;9.66;100.00;99927.09;5072430;28;19924;-83
2023/08/10 15:07:47;;;;;;;;;;;;;;;9.71;100.00;99921.63;5062041;28;19991;-84
2023/08/10 15:10:13;;;;;;;;;;;;;;;9.71;100.00;99921.63;5072447;28;20362;-85
2023/08/10 15:12:38;;;;;;;;;;;;;;;9.72;100.00;99918.94;5071256;28;19995;-85
2023/08/10 15:15:06;;;;;;;;;;;;;;;9.69;100.00;99921.69;5072489;28;19920;-85
2023/08/10 15:17:31;;;;;;;;;;;;;;;9.76;100.00;99920.53;5072286;28;19923;-85
2023/08/10 15:19:57;;;;;;;;;;;;;;;9.76;100.00;99911.75;5072269;28;19920;-83
2023/08/10 15:22:22;;;;;;;;;;;;;;;9.73;100.00;99907.44;5072613;28;19932;-85
2023/08/10 15:24:47;;;;;;;;;;;;;;;9.78;100.00;99905.47;5069165;28;19916;-80
2023/08/10 15:27:12;;;;;;;;;;;;;;;9.79;100.00;99898.38;5070975;28;20377;-82
2023/08/10 15:29:38;;;;;;;;;;;;;;;9.82;100.00;99908.88;5071549;28;19920;-82
2023/08/10 15:32:04;;;;;;;;;;;;;;;9.82;100.00;99900.94;5072177;28;19956;-82
2023/08/10 15:34:29;;;;;;;;;;;;;;;9.82;100.00;99906.22;5071395;28;19971;-82
2023/08/10 15:36:59;;;;;;;;;;;;;;;9.89;100.00;99904.19;5065457;28;19970;-82
2023/08/10 15:39:24;;;;;;;;;;;;;;;9.96;100.00;99898.59;5061852;28;20367;-83
2023/08/10 15:41:49;;;;;;;;;;;;;;;9.84;100.00;99899.06;5045757;28;19943;-83
2023/08/10 15:44:15;;;;;;;;;;;;;;;9.87;100.00;99903.41;5068053;28;19925;-85
2023/08/10 15:46:43;;;;;;;;;;;;;;;9.84;100.00;99901.72;5062560;28;19920;-85
2023/08/10 15:49:08;;;;;;;;;;;;;;;9.92;100.00;99891.69;5062029;28;19981;-85
2023/08/10 15:51:38;;;;;;;;;;;;;;;9.90;100.00;99892.69;5062975;28;19994;-88
2023/08/10 15:54:04;;;;;;;;;;;;;;;9.81;100.00;99884.19;5064745;28;19960;-86
2023/08/10 15:56:29;;;;;;;;;;;;;;;9.82;100.00;99885.91;5071099;28;20303;-83
2023/08/10 15:58:55;;;;;;;;;;;;;;;9.90;100.00;99888.25;5065444;28;19927;-82
2023/08/10 16:01:21;;;;;;;;;;;;;;;9.92;100.00;99893.50;5067412;28;19920;-83
2023/08/10 16:03:46;;;;;;;;;;;;;;;9.92;100.00;99891.69;5057846;28;19969;-85
2023/08/10 16:06:12;;;;;;;;;;;;;;;9.96;100.00;99895.09;5071512;28;20588;-85
2023/08/10 16:08:37;;;;;;;;;;;;;;;9.89;100.00;99890.97;5065852;28;19924;-83
2023/08/10 16:11:02;;;;;;;;;;;;;;;9.94;100.00;99891.63;5066611;28;19931;-87
2023/08/10 16:13:27;;;;;;;;;;;;;;;9.95;100.00;99890.72;5050700;28;19924;-86
2023/08/10 16:15:53;;;;;;;;;;;;;;;9.97;100.00;99888.88;5048994;28;19924;-84
2023/08/10 16:18:18;;;;;;;;;;;;;;;9.95;100.00;99886.28;5067126;28;19927;-86
2023/08/10 16:20:44;;;;;;;;;;;;;;;9.99;100.00;99887.06;5059127;28;19966;-83
2023/08/10 16:23:10;;;;;;;;;;;;;;;9.90;100.00;99882.97;5057477;28;19947;-88
2023/08/10 16:25:35;;;;;;;;;;;;;;;9.94;100.00;99887.22;5049995;28;20201;-87
2023/08/10 16:28:00;;;;;;;;;;;;;;;9.99;100.00;99887.06;5047119;28;19932;-85
2023/08/10 16:30:26;;;;;;;;;;;;;;;9.95;100.00;99881.00;5049365;28;19920;-85
2023/08/10 16:32:51;;;;;;;;;;;;;;;9.93;100.00;99882.00;5048079;28;20025;-85
2023/08/10 16:35:16;;;;;;;;;;;;;;;9.98;100.00;99886.16;5070575;28;20359;-87
2023/08/10 16:37:44;;;;;;;;;;;;;;;9.96;100.00;99885.38;5057197;28;20460;-87
2023/08/10 16:40:10;;;;;;;;;;;;;;;9.95;100.00;99881.00;5049889;28;20749;-86
2023/08/10 16:42:36;;;;;;;;;;;;;;;9.93;100.00;99882.00;5058437;28;20272;-86
2023/08/10 16:45:01;;;;;;;;;;;;;;;10.00;100.00;99883.47;5067244;28;19927;-86
2023/08/10 16:47:27;;;;;;;;;;;;;;;10.06;100.00;99887.66;5061030;28;19927;-87
2023/08/10 16:49:53;;;;;;;;;;;;;;;10.03;100.00;99885.13;5066868;28;20077;-83
2023/08/10 16:52:23;;;;;;;;;;;;;;;9.98;100.00;99882.66;5067921;28;19921;-86
2023/08/10 16:54:48;;;;;;;;;;;;;;;9.99;100.00;99887.91;5058660;28;20011;-88
2023/08/10 16:57:14;;;;;;;;;;;;;;;9.98;100.00;99888.81;5041905;28;20030;-86
2023/08/10 16:59:40;;;;;;;;;;;;;;;9.99;100.00;99893.19;5053342;28;19929;-86
2023/08/10 17:02:05;;;;;;;;;;;;;;;9.94;100.00;99889.88;5060972;28;19921;-87
2023/08/10 17:04:30;;;;;;;;;;;;;;;9.98;100.00;99895.91;5061483;28;19963;-86
2023/08/10 17:06:56;;;;;;;;;;;;;;;9.97;100.00;99895.06;5057129;28;20382;-87
2023/08/10 17:09:21;;;;;;;;;;;;;;;10.00;100.00;99891.41;5046793;28;19925;-87
2023/08/10 17:11:46;;;;;;;;;;;;;;;9.95;100.00;99894.22;5066525;28;19970;-87
2023/08/10 17:14:12;;;;;;;;;;;;;;;9.99;100.00;99890.56;5047539;28;19946;-85
2023/08/10 17:16:38;;;;;;;;;;;;;;;9.96;100.00;99892.47;5058028;28;19922;-87
2023/08/10 17:19:03;;;;;;;;;;;;;;;10.01;100.00;99895.78;5050475;28;19935;-86
2023/08/10 17:21:29;;;;;;;;;;;;;;;9.96;100.00;99890.66;5069400;28;19920;-87
2023/08/10 17:23:54;;;;;;;;;;;;;;;9.91;100.00;99894.44;5062120;28;19921;-87
2023/08/10 17:26:19;;;;;;;;;;;;;;;9.95;100.00;99896.88;5050077;28;19931;-87
2023/08/10 17:28:44;;;;;;;;;;;;;;;9.97;100.00;99896.81;5068203;28;19924;-87
2023/08/10 17:31:10;;;;;;;;;;;;;;;9.97;100.00;99897.69;5068373;28;19920;-88
2023/08/10 17:33:38;;;;;;;;;;;;;;;9.99;100.00;99897.63;5060365;28;19920;-84
2023/08/10 17:36:03;;;;;;;;;;;;;;;19.44;100.00;99886.66;5070378;28;19929;-84
2023/08/10 17:38:28;;;;;;;;;;;;;;;12.74;100.00;99881.13;5072357;28;19970;-88
2023/08/10 17:40:53;;;;;;;;;;;;;;;10.88;100.00;99893.19;5053823;28;20027;-86
2023/08/10 17:43:25;;;;;;;;;;;;;;;10.52;100.00;99893.81;5054924;28;19916;-86
2023/08/10 17:45:50;;;;;;;;;;;;;;;10.38;100.00;99899.66;5074148;28;19921;-86
2023/08/10 17:48:16;;;;;;;;;;;;;;;10.36;100.00;99906.81;5074029;28;19961;-87
2023/08/10 17:50:42;;;;;;;;;;;;;;;10.22;100.00;99902.03;5066135;28;20363;-87
2023/08/10 17:53:07;;;;;;;;;;;;;;;10.26;100.00;99911.59;5071445;28;19924;-87
2023/08/10 17:55:32;;;;;;;;;;;;;;;10.21;100.00;99910.91;5056019;28;19944;-84
2023/08/10 17:57:58;;;;;;;;;;;;;;;10.26;100.00;99918.66;5065308;28;19927;-87
2023/08/10 18:00:23;;;;;;;;;;;;;;;10.16;100.00;99926.09;5051762;28;19990;-90
2023/08/10 18:02:48;;;;;;;;;;;;;;;10.14;100.00;99931.44;5051553;28;19924;-88
2023/08/10 18:05:13;;;;;;;;;;;;;;;10.17;100.00;99931.31;5051476;28;19917;-87
2023/08/10 18:07:39;;;;;;;;;;;;;;;10.11;100.00;99938.66;5051740;28;20436;-87
2023/08/10 18:10:04;;;;;;;;;;;;;;;10.10;100.00;99934.25;5053037;28;19917;-86
2023/08/10 18:12:30;;;;;;;;;;;;;;;10.06;100.00;99935.31;5067930;28;19929;-87
2023/08/10 18:15:01;;;;;;;;;;;;;;;10.04;100.00;99937.19;5049697;28;19978;-86
2023/08/10 18:17:26;;;;;;;;;;;;;;;10.06;100.00;99935.31;5052004;28;19924;-87
2023/08/10 18:19:52;;;;;;;;;;;;;;;10.03;100.00;99938.09;5051341;28;20264;-86
2023/08/10 18:22:29;;;;;;;;;;;;;;;10.05;100.00;99938.88;5055553;28;20015;-87
2023/08/10 18:24:54;;;;;;;;;;;;;;;10.07;100.00;99942.31;5070917;28;19916;-87
2023/08/10 18:27:20;;;;;;;;;;;;;;;10.07;100.00;99950.25;5062724;28;20493;-87
2023/08/10 18:29:45;;;;;;;;;;;;;;;10.06;100.00;99945.91;5071048;28;19920;-82
2023/08/10 18:32:11;;;;;;;;;;;;;;;10.06;100.00;99941.47;5070059;28;19932;-86
2023/08/10 18:34:36;;;;;;;;;;;;;;;10.07;100.00;99947.63;5062642;28;20394;-87
2023/08/10 18:37:02;;;;;;;;;;;;;;;10.10;100.00;99955.44;5073392;28;19916;-89
2023/08/10 18:39:27;;;;;;;;;;;;;;;10.07;100.00;99960.84;5054357;28;19917;-87
2023/08/10 18:41:53;;;;;;;;;;;;;;;10.05;100.00;99962.72;5065322;28;20306;-87
2023/08/10 18:44:24;;;;;;;;;;;;;;;10.06;100.00;99957.34;5065800;28;19924;-87
2023/08/10 18:46:50;;;;;;;;;;;;;;;10.04;100.00;99963.66;5058657;28;19924;-88
2023/08/10 18:49:15;;;;;;;;;;;;;;;10.00;100.00;99969.06;5072608;28;19923;-86
2023/08/10 18:51:41;;;;;;;;;;;;;;;10.04;100.00;99968.94;5054981;28;19916;-88
2023/08/10 18:54:06;;;;;;;;;;;;;;;10.05;100.00;99971.53;5070877;28;19921;-85
2023/08/10 18:56:31;;;;;;;;;;;;;;;10.08;100.00;99975.84;5069076;28;19920;-87
2023/08/10 18:58:56;;;;;;;;;;;;;;;10.05;100.00;99975.94;5059566;28;20015;-86